createdAt,value
2022-07-28T00:00:17.848Z,47.80
2022-07-28T00:02:46.101Z,47.59
2022-07-28T00:05:16.573Z,47.89
2022-07-28T00:07:45.503Z,48.37
2022-07-28T00:10:14.196Z,49.36
2022-07-28T00:12:42.333Z,50.22
2022-07-28T00:15:13.467Z,50.61
2022-07-28T00:17:41.652Z,51.23
2022-07-28T00:20:11.329Z,51.67
2022-07-28T00:22:43.355Z,51.90
2022-07-28T00:25:11.967Z,52.51
2022-07-28T00:27:40.755Z,54.33
2022-07-28T00:30:10.485Z,55.97
2022-07-28T00:32:42.791Z,58.33
2022-07-28T00:35:11.121Z,60.24
2022-07-28T00:37:40.605Z,61.14
2022-07-28T00:40:10.385Z,62.53
2022-07-28T00:42:38.775Z,63.65
2022-07-28T00:45:08.360Z,63.68
2022-07-28T00:47:36.721Z,64.17
2022-07-28T00:50:07.191Z,66.01
2022-07-28T00:52:35.544Z,68.70
2022-07-28T00:55:05.605Z,70.03
2022-07-28T00:57:34.310Z,71.68
2022-07-28T01:00:02.507Z,72.74
2022-07-28T01:02:30.928Z,73.20
2022-07-28T01:04:59.386Z,72.88
2022-07-28T01:07:39.668Z,73.15
2022-07-28T01:10:14.321Z,73.42
2022-07-28T01:12:52.161Z,73.01
2022-07-28T01:15:25.729Z,72.57
2022-07-28T01:18:01.977Z,72.31
2022-07-28T01:20:37.284Z,73.46
2022-07-28T01:23:29.514Z,73.54
2022-07-28T01:26:10.120Z,73.28
2022-07-28T01:29:00.790Z,72.54
2022-07-28T01:31:36.770Z,71.24
2022-07-28T01:34:09.897Z,70.72
2022-07-28T01:36:43.756Z,71.08
2022-07-28T01:39:13.409Z,70.54
2022-07-28T01:41:45.012Z,69.18
2022-07-28T01:44:17.862Z,68.32
2022-07-28T01:46:49.407Z,68.47
2022-07-28T01:49:19.768Z,69.39
2022-07-28T01:51:49.417Z,69.74
2022-07-28T01:54:22.199Z,69.89
2022-07-28T01:56:53.056Z,70.83
2022-07-28T01:59:23.947Z,70.76
2022-07-28T02:01:54.785Z,70.93
2022-07-28T02:04:26.011Z,70.52
2022-07-28T02:06:56.640Z,69.78
2022-07-28T02:09:26.077Z,69.53
2022-07-28T02:11:55.743Z,69.23
2022-07-28T02:14:25.410Z,69.24
2022-07-28T02:16:58.593Z,69.91
2022-07-28T02:19:29.177Z,70.69
2022-07-28T02:21:57.972Z,69.77
2022-07-28T02:24:28.175Z,68.99
2022-07-28T02:27:01.902Z,68.48
2022-07-28T02:29:50.120Z,67.54
2022-07-28T02:32:23.472Z,67.33
2022-07-28T02:34:58.690Z,67.60
2022-07-28T02:37:28.164Z,67.00
2022-07-28T02:40:00.543Z,67.51
2022-07-28T02:42:34.474Z,67.71
2022-07-28T02:45:08.113Z,68.10
2022-07-28T02:47:45.299Z,67.64
2022-07-28T02:50:15.742Z,66.99
2022-07-28T02:52:46.218Z,67.15
2022-07-28T02:55:16.989Z,66.22
2022-07-28T02:57:46.548Z,65.99
2022-07-28T03:00:15.783Z,66.04
2022-07-28T03:02:47.193Z,65.84
2022-07-28T03:05:16.847Z,65.34
2022-07-28T03:07:50.761Z,64.87
2022-07-28T03:10:33.458Z,65.11
2022-07-28T03:13:03.245Z,66.98
2022-07-28T03:15:32.248Z,67.18
2022-07-28T03:18:02.384Z,67.03
2022-07-28T03:20:30.962Z,67.22
2022-07-28T03:22:59.600Z,68.06
2022-07-28T03:25:33.885Z,68.69
2022-07-28T03:28:03.912Z,68.87
2022-07-28T03:30:36.443Z,69.42
2022-07-28T03:33:06.838Z,69.95
2022-07-28T03:35:38.212Z,70.47
2022-07-28T03:38:09.797Z,70.40
2022-07-28T03:40:40.032Z,71.17
2022-07-28T03:43:15.792Z,71.86
2022-07-28T03:45:46.445Z,72.28
2022-07-28T03:48:16.992Z,73.19
2022-07-28T03:50:45.339Z,73.84
2022-07-28T03:53:21.308Z,73.51
2022-07-28T03:55:51.141Z,73.24
2022-07-28T03:58:19.947Z,72.72
2022-07-28T04:00:48.595Z,72.80
2022-07-28T04:03:35.090Z,71.72
2022-07-28T04:06:07.214Z,71.50
2022-07-28T04:08:35.552Z,71.31
2022-07-28T04:11:03.825Z,71.17
2022-07-28T04:13:33.185Z,71.19
2022-07-28T04:16:01.707Z,71.15
2022-07-28T04:18:31.293Z,71.42
2022-07-28T04:20:59.620Z,72.34
2022-07-28T04:23:27.837Z,73.81
2022-07-28T04:25:56.053Z,74.28
2022-07-28T04:28:24.306Z,74.56
2022-07-28T04:30:52.787Z,74.68
2022-07-28T04:33:21.085Z,74.99
2022-07-28T04:35:52.925Z,74.86
2022-07-28T04:38:21.274Z,74.14
2022-07-28T04:40:49.916Z,73.34
2022-07-28T04:43:18.117Z,72.59
2022-07-28T04:45:53.177Z,71.87
2022-07-28T04:48:21.963Z,72.26
2022-07-28T04:50:53.024Z,71.90
2022-07-28T04:53:21.736Z,72.09
2022-07-28T04:55:51.767Z,71.45
2022-07-28T04:58:22.519Z,70.11
2022-07-28T05:00:52.127Z,68.69
2022-07-28T05:03:21.142Z,68.24
2022-07-28T05:05:54.127Z,68.30
2022-07-28T05:08:26.435Z,69.55
2022-07-28T05:10:56.309Z,70.38
2022-07-28T05:13:28.945Z,70.10
2022-07-28T05:16:01.623Z,70.01
2022-07-28T05:18:30.252Z,70.22
2022-07-28T05:20:58.417Z,70.53
2022-07-28T05:23:28.038Z,70.49
2022-07-28T05:25:56.906Z,70.46
2022-07-28T05:28:25.126Z,72.23
2022-07-28T05:30:54.250Z,72.17
2022-07-28T05:33:22.446Z,72.22
2022-07-28T05:35:55.115Z,72.61
2022-07-28T05:38:23.762Z,71.92
2022-07-28T05:40:53.799Z,71.67
2022-07-28T05:43:22.633Z,71.47
2022-07-28T05:45:51.138Z,70.88
2022-07-28T05:48:20.183Z,70.15
2022-07-28T05:50:51.893Z,70.56
2022-07-28T05:53:21.897Z,71.25
2022-07-28T05:56:00.030Z,71.68
2022-07-28T05:58:31.800Z,71.30
2022-07-28T06:01:01.237Z,71.26
2022-07-28T06:03:32.215Z,71.85
2022-07-28T06:06:16.213Z,71.22
2022-07-28T06:08:46.869Z,69.53
2022-07-28T06:11:22.245Z,68.15
2022-07-28T06:13:53.434Z,68.24
2022-07-28T06:16:23.407Z,68.83
2022-07-28T06:18:52.996Z,69.21
2022-07-28T06:21:24.499Z,68.80
2022-07-28T06:23:52.783Z,68.61
2022-07-28T06:26:23.419Z,67.45
2022-07-28T06:28:55.946Z,66.97
2022-07-28T06:31:24.412Z,66.50
2022-07-28T06:33:52.998Z,66.80
2022-07-28T06:36:21.211Z,66.91
2022-07-28T06:38:49.786Z,67.48
2022-07-28T06:41:18.178Z,67.13
2022-07-28T06:43:52.208Z,66.16
2022-07-28T06:46:24.522Z,64.43
2022-07-28T06:48:55.667Z,63.80
2022-07-28T06:51:24.089Z,62.48
2022-07-28T06:53:53.106Z,61.43
2022-07-28T06:56:21.719Z,60.97
2022-07-28T06:58:52.290Z,60.59
2022-07-28T07:01:22.268Z,60.59
2022-07-28T07:03:50.608Z,60.00
2022-07-28T07:06:19.082Z,59.38
2022-07-28T07:08:48.638Z,58.28
2022-07-28T07:11:17.110Z,57.87
2022-07-28T07:13:45.507Z,57.74
2022-07-28T07:16:13.866Z,57.19
2022-07-28T07:18:43.656Z,56.89
2022-07-28T07:21:11.981Z,56.19
2022-07-28T07:23:40.376Z,56.76
2022-07-28T07:26:12.879Z,56.95
2022-07-28T07:28:43.309Z,57.11
2022-07-28T07:31:11.752Z,56.86
2022-07-28T07:33:40.037Z,57.06
2022-07-28T07:36:09.831Z,56.94
2022-07-28T07:38:38.939Z,56.40
2022-07-28T07:41:07.364Z,56.05
2022-07-28T07:43:36.365Z,55.73
2022-07-28T07:46:05.047Z,56.99
2022-07-28T07:48:33.222Z,58.16
2022-07-28T07:51:01.471Z,57.94
2022-07-28T07:53:31.095Z,57.60
2022-07-28T07:55:59.603Z,57.07
2022-07-28T07:58:28.020Z,56.62
2022-07-28T08:00:58.220Z,55.76
2022-07-28T08:03:26.811Z,54.86
2022-07-28T08:05:57.407Z,55.04
2022-07-28T08:08:25.972Z,54.49
2022-07-28T08:10:55.634Z,54.70
2022-07-28T08:13:24.302Z,54.19
2022-07-28T08:15:52.813Z,53.96
2022-07-28T08:18:21.853Z,53.50
2022-07-28T08:20:50.415Z,53.29
2022-07-28T08:23:22.980Z,53.08
2022-07-28T08:25:56.280Z,52.82
2022-07-28T08:28:24.715Z,52.73
2022-07-28T08:30:53.180Z,52.12
2022-07-28T08:33:22.122Z,51.89
2022-07-28T08:35:53.193Z,52.39
2022-07-28T08:38:32.057Z,52.37
2022-07-28T08:41:05.511Z,53.43
2022-07-28T08:43:35.715Z,53.91
2022-07-28T08:46:06.586Z,53.23
2022-07-28T08:48:36.486Z,52.76
2022-07-28T08:51:11.206Z,52.61
2022-07-28T08:53:42.533Z,52.20
2022-07-28T08:56:15.220Z,52.24
2022-07-28T08:58:44.171Z,52.47
2022-07-28T09:01:13.329Z,52.98
2022-07-28T09:03:42.181Z,52.30
2022-07-28T09:06:10.752Z,51.80
2022-07-28T09:08:39.560Z,51.55
2022-07-28T09:11:13.186Z,51.77
2022-07-28T09:13:41.431Z,51.80
2022-07-28T09:16:09.856Z,50.52
2022-07-28T09:18:38.231Z,50.52
2022-07-28T09:21:06.449Z,50.52
2022-07-28T09:23:44.939Z,50.77
2022-07-28T09:26:14.766Z,51.14
2022-07-28T09:28:51.287Z,51.32
2022-07-28T09:31:20.649Z,51.77
2022-07-28T09:34:01.574Z,52.12
2022-07-28T09:36:33.884Z,51.61
2022-07-28T09:39:02.102Z,51.17
2022-07-28T09:41:47.739Z,51.23
2022-07-28T09:44:19.983Z,51.15
2022-07-28T09:46:48.571Z,50.76
2022-07-28T09:49:17.127Z,50.91
2022-07-28T09:52:00.958Z,51.01
2022-07-28T09:54:29.267Z,50.97
2022-07-28T09:56:59.347Z,50.80
2022-07-28T09:59:28.174Z,51.33
2022-07-28T10:01:59.965Z,50.38
2022-07-28T10:04:31.991Z,50.55
2022-07-28T10:07:10.220Z,50.21
2022-07-28T10:09:39.544Z,49.87
2022-07-28T10:12:22.045Z,49.46
2022-07-28T10:14:52.116Z,48.81
2022-07-28T10:17:30.259Z,48.65
2022-07-28T10:19:59.910Z,47.75
2022-07-28T10:22:32.235Z,46.67
2022-07-28T10:25:03.519Z,46.19
2022-07-28T10:27:33.576Z,46.39
2022-07-28T10:30:03.726Z,46.17
2022-07-28T10:32:35.960Z,45.15
2022-07-28T10:35:10.048Z,45.06
2022-07-28T10:37:40.470Z,45.10
2022-07-28T10:40:11.056Z,45.12
2022-07-28T10:42:42.561Z,45.76
2022-07-28T10:45:12.254Z,44.84
2022-07-28T10:47:40.680Z,44.77
2022-07-28T10:50:09.927Z,45.22
2022-07-28T10:52:50.061Z,45.25
2022-07-28T10:55:24.936Z,45.14
2022-07-28T10:58:11.901Z,44.23
2022-07-28T11:01:01.815Z,44.50
2022-07-28T11:03:43.089Z,43.48
2022-07-28T11:06:28.597Z,42.29
2022-07-28T11:08:57.783Z,42.39
2022-07-28T11:11:45.601Z,42.10
2022-07-28T11:14:37.169Z,41.51
2022-07-28T11:17:24.258Z,41.49
2022-07-28T11:20:27.239Z,41.27
2022-07-28T11:22:51.944Z,41.23
2022-07-28T11:25:22.670Z,41.13
2022-07-28T11:28:02.274Z,41.29
2022-07-28T11:30:54.526Z,41.50
2022-07-28T11:33:25.091Z,40.76
2022-07-28T11:35:59.495Z,39.32
2022-07-28T11:38:28.585Z,39.65
2022-07-28T11:40:57.871Z,39.83
2022-07-28T11:46:37.503Z,39.41
2022-07-28T11:49:25.934Z,39.12
2022-07-28T11:52:21.716Z,39.16
2022-07-28T11:54:55.000Z,39.55
2022-07-28T11:57:26.043Z,40.29
2022-07-28T12:00:00.290Z,40.14
2022-07-28T12:02:34.415Z,39.85
2022-07-28T12:05:13.843Z,39.43
2022-07-28T12:07:47.682Z,39.88
2022-07-28T12:13:16.329Z,39.99
2022-07-28T12:15:51.640Z,40.22
2022-07-28T12:18:21.420Z,40.32
2022-07-28T12:20:55.471Z,40.30
2022-07-28T12:23:38.617Z,40.56
2022-07-28T12:26:13.669Z,40.51
2022-07-28T12:28:50.844Z,40.86
2022-07-28T12:31:19.071Z,40.79
2022-07-28T12:33:53.682Z,41.02
2022-07-28T12:36:36.291Z,41.16
2022-07-28T12:39:09.557Z,40.57
2022-07-28T12:41:41.163Z,41.15
2022-07-28T12:44:09.457Z,41.62
2022-07-28T12:46:37.889Z,41.58
2022-07-28T12:49:21.883Z,41.26
2022-07-28T12:51:50.235Z,41.55
2022-07-28T12:54:18.600Z,41.72
2022-07-28T12:56:48.365Z,41.04
2022-07-28T12:59:18.580Z,41.27
2022-07-28T13:01:51.948Z,41.06
2022-07-28T13:04:43.540Z,41.01
2022-07-28T13:07:16.067Z,40.97
2022-07-28T13:10:00.427Z,41.55
2022-07-28T13:12:32.122Z,42.20
2022-07-28T13:15:01.642Z,41.87
2022-07-28T13:17:53.461Z,42.44
2022-07-28T13:20:24.274Z,42.46
2022-07-28T13:22:52.836Z,42.47
2022-07-28T13:25:22.275Z,42.51
2022-07-28T13:27:55.187Z,42.24
2022-07-28T13:30:24.577Z,42.61
2022-07-28T13:32:54.883Z,42.39
2022-07-28T13:35:24.956Z,42.18
2022-07-28T13:38:02.909Z,42.01
2022-07-28T13:40:31.261Z,42.07
2022-07-28T13:42:59.553Z,41.92
2022-07-28T13:45:29.995Z,42.08
2022-07-28T13:48:09.834Z,42.02
2022-07-28T13:50:39.588Z,42.03
2022-07-28T13:53:09.061Z,41.76
2022-07-28T13:55:38.368Z,41.86
2022-07-28T13:58:08.721Z,41.90
2022-07-28T14:00:37.368Z,42.49
2022-07-28T14:03:08.451Z,42.82
2022-07-28T14:05:37.319Z,42.14
2022-07-28T14:08:08.684Z,40.86
2022-07-28T14:10:38.710Z,39.93
2022-07-28T14:13:07.071Z,40.08
2022-07-28T14:15:35.491Z,40.72
2022-07-28T14:18:03.847Z,41.95
2022-07-28T14:20:32.172Z,41.64
2022-07-28T14:23:00.862Z,41.62
2022-07-28T14:25:47.978Z,41.42
2022-07-28T14:28:25.421Z,41.97
2022-07-28T14:30:55.729Z,41.12
2022-07-28T14:33:27.334Z,41.64
2022-07-28T14:35:55.606Z,41.98
2022-07-28T14:41:15.105Z,42.42
2022-07-28T14:43:43.477Z,41.99
2022-07-28T14:46:16.353Z,42.77
2022-07-28T14:48:46.227Z,42.56
2022-07-28T14:51:15.240Z,42.61
2022-07-28T14:53:50.085Z,42.15
2022-07-28T14:56:21.862Z,42.96
2022-07-28T14:58:50.198Z,42.89
2022-07-28T15:01:18.576Z,42.62
2022-07-28T15:03:47.122Z,42.91
2022-07-28T15:06:17.819Z,43.11
2022-07-28T15:08:46.046Z,43.26
2022-07-28T15:11:16.373Z,43.29
2022-07-28T15:13:45.948Z,42.90
2022-07-28T15:16:15.121Z,43.39
2022-07-28T15:18:44.860Z,43.35
2022-07-28T15:21:16.373Z,43.56
2022-07-28T15:23:45.069Z,43.47
2022-07-28T15:26:15.356Z,43.71
2022-07-28T15:28:43.654Z,43.55
2022-07-28T15:31:17.211Z,43.49
2022-07-28T15:33:50.959Z,43.51
2022-07-28T15:36:26.728Z,43.31
2022-07-28T15:38:55.425Z,43.56
2022-07-28T15:41:23.663Z,43.61
2022-07-28T15:43:51.983Z,43.83
2022-07-28T15:46:21.936Z,43.99
2022-07-28T15:48:50.273Z,44.09
2022-07-28T15:51:19.439Z,43.83
2022-07-28T15:53:56.412Z,44.00
2022-07-28T15:56:26.395Z,44.28
2022-07-28T15:58:54.832Z,44.52
2022-07-28T16:01:26.637Z,44.71
2022-07-28T16:03:55.333Z,44.69
2022-07-28T16:06:48.281Z,44.79
2022-07-28T16:09:23.863Z,44.83
2022-07-28T16:11:52.107Z,44.73
2022-07-28T16:14:20.267Z,44.70
2022-07-28T16:16:49.882Z,44.53
2022-07-28T16:19:38.582Z,44.88
2022-07-28T16:22:06.756Z,44.76
2022-07-28T16:24:35.689Z,45.39
2022-07-28T16:27:04.355Z,45.17
2022-07-28T16:29:35.752Z,45.27
2022-07-28T16:32:17.341Z,45.12
2022-07-28T16:34:45.949Z,44.85
2022-07-28T16:37:19.070Z,44.97
2022-07-28T16:40:50.095Z,44.81
2022-07-28T16:44:15.818Z,44.55
2022-07-28T16:46:53.671Z,44.44
2022-07-28T16:49:24.096Z,45.02
2022-07-28T16:51:52.443Z,45.35
2022-07-28T16:54:20.950Z,46.17
2022-07-28T16:56:49.518Z,46.30
2022-07-28T16:59:17.743Z,46.34
2022-07-28T17:01:46.883Z,46.73
2022-07-28T17:04:16.197Z,47.06
2022-07-28T17:06:47.763Z,47.25
2022-07-28T17:09:20.367Z,47.23
2022-07-28T17:11:51.849Z,47.10
2022-07-28T17:14:22.898Z,47.80
2022-07-28T17:16:59.983Z,48.06
2022-07-28T17:19:32.766Z,48.91
2022-07-28T17:22:18.033Z,49.19
2022-07-28T17:24:49.520Z,49.34
2022-07-28T17:27:41.235Z,49.62
2022-07-28T17:30:11.705Z,49.77
2022-07-28T17:32:54.878Z,50.40
2022-07-28T17:35:34.424Z,49.97
2022-07-28T17:38:07.028Z,49.81
2022-07-28T17:40:35.432Z,49.73
2022-07-28T17:43:03.613Z,50.69
2022-07-28T17:45:32.272Z,51.87
2022-07-28T17:48:07.811Z,52.95
2022-07-28T17:50:36.182Z,52.49
2022-07-28T17:53:11.305Z,54.58
2022-07-28T17:56:00.687Z,57.06
2022-07-28T17:58:32.348Z,56.11
2022-07-28T18:01:11.230Z,52.66
2022-07-28T18:03:56.862Z,50.33
2022-07-28T18:06:29.697Z,49.49
2022-07-28T18:09:05.730Z,48.86
2022-07-28T18:11:37.742Z,50.47
2022-07-28T18:14:30.981Z,51.17
2022-07-28T18:17:00.775Z,50.08
2022-07-28T18:19:31.218Z,50.82
2022-07-28T18:21:59.968Z,50.30
2022-07-28T18:24:33.595Z,51.09
2022-07-28T18:27:08.561Z,51.38
2022-07-28T18:29:38.366Z,51.78
2022-07-28T18:32:09.729Z,52.26
2022-07-28T18:34:39.495Z,51.94
2022-07-28T18:37:08.296Z,51.65
2022-07-28T18:39:40.618Z,51.05
2022-07-28T18:42:09.038Z,51.15
2022-07-28T18:44:40.363Z,51.16
2022-07-28T18:47:16.017Z,50.59
2022-07-28T18:49:44.326Z,51.21
2022-07-28T18:52:48.675Z,51.91
2022-07-28T18:55:19.209Z,52.04
2022-07-28T18:57:47.476Z,52.08
2022-07-28T19:00:16.298Z,51.41
2022-07-28T19:02:44.623Z,50.27
2022-07-28T19:05:12.898Z,50.22
2022-07-28T19:11:19.966Z,49.55
2022-07-28T19:13:48.805Z,48.59
2022-07-28T19:16:17.192Z,48.89
2022-07-28T19:19:17.008Z,49.11
2022-07-28T19:21:51.251Z,49.01
2022-07-28T19:24:19.943Z,50.28
2022-07-28T19:26:55.019Z,51.28
2022-07-28T19:29:25.278Z,51.68
2022-07-28T19:31:53.576Z,51.62
2022-07-28T19:34:21.917Z,51.82
2022-07-28T19:36:51.675Z,51.53
2022-07-28T19:39:28.081Z,52.12
2022-07-28T19:42:04.145Z,51.76
2022-07-28T19:45:04.141Z,51.70
2022-07-28T19:47:32.876Z,51.67
2022-07-28T19:50:06.365Z,52.10
2022-07-28T19:52:35.164Z,52.11
2022-07-28T19:55:06.693Z,52.09
2022-07-28T19:57:39.207Z,52.35
2022-07-28T20:00:11.031Z,52.32
2022-07-28T20:02:42.348Z,52.44
2022-07-28T20:05:11.467Z,51.73
2022-07-28T20:07:40.033Z,52.49
2022-07-28T20:10:08.815Z,51.99
2022-07-28T20:12:39.415Z,51.65
2022-07-28T20:15:11.925Z,51.83
2022-07-28T20:17:40.480Z,52.75
2022-07-28T20:20:12.939Z,53.79
2022-07-28T20:22:45.454Z,54.26
2022-07-28T20:25:14.214Z,54.31
2022-07-28T20:27:59.101Z,54.33
2022-07-28T20:30:30.734Z,54.39
2022-07-28T20:33:09.770Z,54.97
2022-07-28T20:35:44.982Z,54.98
2022-07-28T20:38:54.801Z,55.77
2022-07-28T20:41:21.172Z,55.91
2022-07-28T20:44:11.345Z,56.38
2022-07-28T20:46:42.097Z,57.31
2022-07-28T20:49:18.799Z,56.87
2022-07-28T20:51:50.664Z,56.86
2022-07-28T20:54:26.313Z,56.54
2022-07-28T20:57:03.646Z,56.14
2022-07-28T20:59:33.367Z,56.59
2022-07-28T21:02:04.279Z,56.28
2022-07-28T21:04:32.505Z,56.22
2022-07-28T21:07:07.271Z,55.92
2022-07-28T21:09:37.746Z,55.83
2022-07-28T21:12:06.815Z,55.83
2022-07-28T21:14:36.453Z,55.99
2022-07-28T21:17:37.591Z,56.35
2022-07-28T21:20:32.181Z,56.36
2022-07-28T21:23:37.853Z,56.82
2022-07-28T21:26:51.040Z,55.89
2022-07-28T21:30:09.905Z,55.84
2022-07-28T21:35:52.229Z,56.65
2022-07-28T21:41:57.791Z,56.76
2022-07-28T21:44:39.454Z,57.20
2022-07-28T21:47:23.928Z,57.16
2022-07-28T21:50:13.638Z,56.89
2022-07-28T21:52:47.172Z,56.94
2022-07-28T21:55:20.725Z,57.23
2022-07-28T21:58:51.318Z,57.87
2022-07-28T22:01:19.731Z,57.77
2022-07-28T22:03:49.098Z,58.33
2022-07-28T22:10:09.105Z,59.15
2022-07-28T22:12:37.416Z,59.35
2022-07-28T22:15:06.289Z,59.53
2022-07-28T22:17:34.444Z,60.38
2022-07-28T22:20:02.693Z,60.37
2022-07-28T22:22:30.913Z,60.44
2022-07-28T22:24:59.059Z,60.60
2022-07-28T22:27:32.735Z,60.36
2022-07-28T22:30:03.097Z,59.93
2022-07-28T22:32:31.567Z,60.19
2022-07-28T22:35:00.014Z,60.69
2022-07-28T22:37:29.276Z,61.27
2022-07-28T22:39:57.452Z,61.40
2022-07-28T22:42:25.741Z,61.88
2022-07-28T22:45:01.108Z,62.00
2022-07-28T22:47:29.372Z,62.04
2022-07-28T22:50:00.016Z,62.60
2022-07-28T22:52:31.872Z,62.58
2022-07-28T22:55:01.096Z,62.63
2022-07-28T22:57:30.373Z,62.59
2022-07-28T23:00:00.138Z,62.41
2022-07-28T23:02:30.158Z,62.82
2022-07-28T23:04:58.711Z,62.91
2022-07-28T23:07:52.835Z,63.12
2022-07-28T23:10:15.057Z,63.03
2022-07-28T23:12:43.442Z,63.61
2022-07-28T23:15:13.160Z,63.56
2022-07-28T23:17:43.806Z,63.47
2022-07-28T23:20:12.843Z,63.48
2022-07-28T23:22:43.149Z,63.57
2022-07-28T23:25:14.496Z,63.57
2022-07-28T23:27:45.762Z,63.55
2022-07-28T23:30:17.333Z,63.39
2022-07-28T23:32:45.430Z,63.18
2022-07-28T23:35:19.305Z,63.38
2022-07-28T23:37:47.591Z,63.69
2022-07-28T23:40:15.881Z,63.65
2022-07-28T23:42:44.156Z,63.63
2022-07-28T23:45:12.842Z,63.53
2022-07-28T23:47:42.506Z,63.06
2022-07-28T23:50:11.047Z,62.80
2022-07-28T23:52:39.293Z,62.65
2022-07-28T23:55:08.598Z,62.40
2022-07-28T23:57:36.922Z,62.09
